METAR AND TAF INFORMATION
METAR FOR ORBI
ADDS - METARS form results

(0448 UTC 29 February 2020)
Data provider http://aviationweather.gov/metar/data/
 
METAR text: ORBI 290430Z 11001KT 3900 NSC 11/08 Q1014 NOSIG
Conditions at: ORBI (BAGHDAD INTL , IQ) observed 0430 UTC 29 February 2020
Temperature: 11.0°C (52°F)
Dewpoint: 8.0°C (46°F) [RH = 82%]
Pressure (altimeter): 29.94 inches Hg (1014.0 mb)
Winds: from the ESE (110 degrees) at 1 MPH (1 knots; 0.5 m/s)
Visibility: 2.42 miles (3.89 km)
Ceiling: at least 12,000 feet AGL
Clouds: sky clear below 12,000 feet AGL
Weather: no significant weather observed at this time

METAR text: ORBI 290400Z 15002KT 6000 NSC 10/07 Q1014 NOSIG
Conditions at: ORBI (BAGHDAD INTL , IQ) observed 0400 UTC 29 February 2020
Temperature: 10.0°C (50°F)
Dewpoint: 7.0°C (45°F) [RH = 82%]
Pressure (altimeter): 29.94 inches Hg (1014.0 mb)
Winds: from the SSE (150 degrees) at 2 MPH (2 knots; 1.0 m/s)
Visibility: 4 miles ( 6 km)
Ceiling: at least 12,000 feet AGL
Clouds: sky clear below 12,000 feet AGL
Weather: no significant weather observed at this time

Forecast for: ORBI (BAGHDAD INTL , IQ)
Text: TAF ORBI 290400Z 2906/0106 VRB03KT 7000 NSC
Forecast period: 0600 to 1000 UTC 29 February 2020
Forecast type: FROM: standard forecast or significant change
Winds: variable direction winds at 3 MPH (3 knots; 1.5 m/s)
Visibility: 4 miles (7 km)
Ceiling: unknown
Clouds: missing
Weather: no significant weather forecast for this period
Text: BECMG 2910/2912 12010KT
Forecast period: 1000 UTC 29 February 2020 to 0600 UTC 01 March 2020
Forecast type: BECOMING: Conditions expected to become as follows by 1200 UTC 29 February 2020
Winds: from the ESE (120 degrees) at 12 MPH (10 knots; 5.1 m/s)
Visibility: 4 miles (7 km)
Ceiling: unknown
Clouds: missing
Weather: no significant weather forecast for this period

 AIRPORT MAP

 RUNWAY INFORMATION

 AIRPORT FREQUENCIES
Type ACC Name BALAD ACC Frequency 123.52 MHZ
Type APP Name APP Frequency 128.2 MHZ
Type ATIS Name INFO Frequency 127.25 MHZ
Type DEP Name DEP Frequency 131.9 MHZ
Type GND Name GND Frequency 121.7 MHZ
Type HEL Name HELO Frequency 131.7 MHZ
Type PMSV Name METRO Frequency 116.15 MHZ
Type POST Name COMD POST Frequency 133.5 MHZ
Type RDO Name RDO Frequency 127.35 MHZ
Type TWR Name TWR Frequency 118.7 MHZ

 AIRPORT NEAR NAVIGATION AIDS
Type TACAN Name Baghdad Frequency 133700 KHZ



2018 Air Astana Virtual Airline